sensor_id;sensor_type;location;lat;lon;timestamp;temperature;humidity
61386;DHT22;47256;18.904;-99.054;2022-12-05T00:58:23;23.20;83.60
61386;DHT22;47256;18.904;-99.054;2022-12-05T01:00:53;23.00;83.20
61386;DHT22;47256;18.904;-99.054;2022-12-05T01:03:20;23.00;82.80
61386;DHT22;47256;18.904;-99.054;2022-12-05T01:05:48;23.00;82.90
61386;DHT22;47256;18.904;-99.054;2022-12-05T01:08:15;23.00;83.90
61386;DHT22;47256;18.904;-99.054;2022-12-05T01:10:52;22.90;83.60
61386;DHT22;47256;18.904;-99.054;2022-12-05T01:13:21;22.90;83.90
61386;DHT22;47256;18.904;-99.054;2022-12-05T01:15:49;23.00;84.20
61386;DHT22;47256;18.904;-99.054;2022-12-05T01:18:19;22.90;83.70
61386;DHT22;47256;18.904;-99.054;2022-12-05T01:20:47;22.90;83.80
61386;DHT22;47256;18.904;-99.054;2022-12-05T01:23:16;23.00;83.90
61386;DHT22;47256;18.904;-99.054;2022-12-05T01:25:46;23.00;83.10
61386;DHT22;47256;18.904;-99.054;2022-12-05T01:28:15;22.90;84.40
61386;DHT22;47256;18.904;-99.054;2022-12-05T01:30:47;22.90;84.80
61386;DHT22;47256;18.904;-99.054;2022-12-05T01:33:16;22.80;85.70
61386;DHT22;47256;18.904;-99.054;2022-12-05T01:35:44;22.70;85.30
61386;DHT22;47256;18.904;-99.054;2022-12-05T01:38:11;22.60;86.00
61386;DHT22;47256;18.904;-99.054;2022-12-05T01:40:40;22.60;86.60
61386;DHT22;47256;18.904;-99.054;2022-12-05T01:43:16;22.50;85.10
61386;DHT22;47256;18.904;-99.054;2022-12-05T01:45:45;22.50;84.40
61386;DHT22;47256;18.904;-99.054;2022-12-05T01:48:32;22.50;84.00
61386;DHT22;47256;18.904;-99.054;2022-12-05T01:51:03;22.40;84.00
61386;DHT22;47256;18.904;-99.054;2022-12-05T01:53:30;22.40;84.10
61386;DHT22;47256;18.904;-99.054;2022-12-05T01:55:57;22.50;84.10
61386;DHT22;47256;18.904;-99.054;2022-12-05T01:58:28;22.40;84.70
61386;DHT22;47256;18.904;-99.054;2022-12-05T02:01:01;22.40;84.30
61386;DHT22;47256;18.904;-99.054;2022-12-05T02:03:28;22.50;84.50
61386;DHT22;47256;18.904;-99.054;2022-12-05T02:05:57;22.50;84.80
61386;DHT22;47256;18.904;-99.054;2022-12-05T02:08:27;22.50;84.90
61386;DHT22;47256;18.904;-99.054;2022-12-05T02:10:56;22.50;84.70
61386;DHT22;47256;18.904;-99.054;2022-12-05T02:16:35;22.30;85.80
61386;DHT22;47256;18.904;-99.054;2022-12-05T02:19:39;22.10;86.90
61386;DHT22;47256;18.904;-99.054;2022-12-05T02:22:23;22.00;87.10
61386;DHT22;47256;18.904;-99.054;2022-12-05T02:25:12;22.10;85.90
61386;DHT22;47256;18.904;-99.054;2022-12-05T02:28:29;22.00;86.10
61386;DHT22;47256;18.904;-99.054;2022-12-05T02:31:16;21.90;86.60
61386;DHT22;47256;18.904;-99.054;2022-12-05T02:33:51;21.90;86.20
61386;DHT22;47256;18.904;-99.054;2022-12-05T02:40:00;21.90;86.60
61386;DHT22;47256;18.904;-99.054;2022-12-05T02:42:14;21.80;86.60
61386;DHT22;47256;18.904;-99.054;2022-12-05T02:44:53;21.70;85.00
61386;DHT22;47256;18.904;-99.054;2022-12-05T02:47:29;21.70;80.90
61386;DHT22;47256;18.904;-99.054;2022-12-05T02:50:00;21.80;83.90
61386;DHT22;47256;18.904;-99.054;2022-12-05T02:52:29;21.80;84.50
61386;DHT22;47256;18.904;-99.054;2022-12-05T02:55:07;21.80;84.00
61386;DHT22;47256;18.904;-99.054;2022-12-05T02:57:37;21.70;85.10
61386;DHT22;47256;18.904;-99.054;2022-12-05T03:00:15;21.70;83.50
61386;DHT22;47256;18.904;-99.054;2022-12-05T03:02:44;21.60;84.40
61386;DHT22;47256;18.904;-99.054;2022-12-05T03:08:02;21.60;85.10
61386;DHT22;47256;18.904;-99.054;2022-12-05T03:10:36;21.60;84.80
61386;DHT22;47256;18.904;-99.054;2022-12-05T03:13:13;21.60;84.80
61386;DHT22;47256;18.904;-99.054;2022-12-05T03:15:51;21.60;85.20
61386;DHT22;47256;18.904;-99.054;2022-12-05T03:18:30;21.50;85.70
61386;DHT22;47256;18.904;-99.054;2022-12-05T03:21:06;21.40;85.70
61386;DHT22;47256;18.904;-99.054;2022-12-05T03:23:46;21.20;86.50
61386;DHT22;47256;18.904;-99.054;2022-12-05T03:29:38;21.00;86.90
61386;DHT22;47256;18.904;-99.054;2022-12-05T03:32:49;20.90;86.80
61386;DHT22;47256;18.904;-99.054;2022-12-05T03:36:05;21.00;87.50
61386;DHT22;47256;18.904;-99.054;2022-12-05T03:41:22;21.00;86.50
61386;DHT22;47256;18.904;-99.054;2022-12-05T03:51:32;21.00;86.80
61386;DHT22;47256;18.904;-99.054;2022-12-05T03:54:05;21.00;87.00
61386;DHT22;47256;18.904;-99.054;2022-12-05T03:57:02;21.00;86.70
61386;DHT22;47256;18.904;-99.054;2022-12-05T03:59:41;21.00;86.60
61386;DHT22;47256;18.904;-99.054;2022-12-05T04:02:23;21.00;86.60
61386;DHT22;47256;18.904;-99.054;2022-12-05T04:05:06;21.10;87.00
61386;DHT22;47256;18.904;-99.054;2022-12-05T04:07:38;21.10;86.40
61386;DHT22;47256;18.904;-99.054;2022-12-05T04:10:13;21.10;86.20
61386;DHT22;47256;18.904;-99.054;2022-12-05T04:12:43;21.00;85.90
61386;DHT22;47256;18.904;-99.054;2022-12-05T04:15:18;21.00;85.00
61386;DHT22;47256;18.904;-99.054;2022-12-05T04:17:59;21.00;86.20
61386;DHT22;47256;18.904;-99.054;2022-12-05T04:20:38;21.00;86.60
61386;DHT22;47256;18.904;-99.054;2022-12-05T04:23:27;21.00;86.40
61386;DHT22;47256;18.904;-99.054;2022-12-05T04:26:12;21.00;86.10
61386;DHT22;47256;18.904;-99.054;2022-12-05T04:28:56;20.90;86.60
61386;DHT22;47256;18.904;-99.054;2022-12-05T04:31:47;21.00;86.90
61386;DHT22;47256;18.904;-99.054;2022-12-05T04:34:21;21.00;87.00
61386;DHT22;47256;18.904;-99.054;2022-12-05T04:37:00;21.00;86.90
61386;DHT22;47256;18.904;-99.054;2022-12-05T04:39:50;21.00;86.70
61386;DHT22;47256;18.904;-99.054;2022-12-05T04:42:22;21.00;87.10
61386;DHT22;47256;18.904;-99.054;2022-12-05T04:44:55;20.90;87.10
61386;DHT22;47256;18.904;-99.054;2022-12-05T04:47:30;20.80;87.50
61386;DHT22;47256;18.904;-99.054;2022-12-05T04:50:00;20.80;87.70
61386;DHT22;47256;18.904;-99.054;2022-12-05T04:52:29;20.70;87.50
61386;DHT22;47256;18.904;-99.054;2022-12-05T04:55:08;20.60;88.30
61386;DHT22;47256;18.904;-99.054;2022-12-05T04:58:10;20.50;88.50
61386;DHT22;47256;18.904;-99.054;2022-12-05T05:06:13;20.40;89.50
61386;DHT22;47256;18.904;-99.054;2022-12-05T05:08:50;20.40;89.20
61386;DHT22;47256;18.904;-99.054;2022-12-05T05:11:26;20.30;89.10
61386;DHT22;47256;18.904;-99.054;2022-12-05T05:13:55;20.40;89.60
61386;DHT22;47256;18.904;-99.054;2022-12-05T05:16:29;20.40;89.20
61386;DHT22;47256;18.904;-99.054;2022-12-05T05:18:58;20.40;88.90
61386;DHT22;47256;18.904;-99.054;2022-12-05T05:21:29;20.50;88.70
61386;DHT22;47256;18.904;-99.054;2022-12-05T05:24:01;20.30;89.00
61386;DHT22;47256;18.904;-99.054;2022-12-05T05:26:30;20.20;89.70
61386;DHT22;47256;18.904;-99.054;2022-12-05T05:29:02;20.10;90.20
61386;DHT22;47256;18.904;-99.054;2022-12-05T05:31:29;20.10;90.40
61386;DHT22;47256;18.904;-99.054;2022-12-05T05:33:57;20.10;90.30
61386;DHT22;47256;18.904;-99.054;2022-12-05T05:36:26;20.10;90.40
61386;DHT22;47256;18.904;-99.054;2022-12-05T05:38:57;19.90;90.70
61386;DHT22;47256;18.904;-99.054;2022-12-05T05:41:32;19.80;90.90
61386;DHT22;47256;18.904;-99.054;2022-12-05T05:44:02;19.80;90.80
61386;DHT22;47256;18.904;-99.054;2022-12-05T05:46:32;19.80;90.70
61386;DHT22;47256;18.904;-99.054;2022-12-05T05:49:00;19.80;90.80
61386;DHT22;47256;18.904;-99.054;2022-12-05T05:51:30;19.90;90.70
61386;DHT22;47256;18.904;-99.054;2022-12-05T05:53:58;19.90;90.40
61386;DHT22;47256;18.904;-99.054;2022-12-05T05:56:27;19.90;90.40
61386;DHT22;47256;18.904;-99.054;2022-12-05T05:58:59;19.90;90.60
61386;DHT22;47256;18.904;-99.054;2022-12-05T06:01:28;19.90;90.30
61386;DHT22;47256;18.904;-99.054;2022-12-05T06:03:55;19.90;90.20
61386;DHT22;47256;18.904;-99.054;2022-12-05T06:06:27;19.90;90.10
61386;DHT22;47256;18.904;-99.054;2022-12-05T06:08:54;19.90;90.10
61386;DHT22;47256;18.904;-99.054;2022-12-05T06:11:26;19.90;90.10
61386;DHT22;47256;18.904;-99.054;2022-12-05T06:13:55;19.80;90.20
61386;DHT22;47256;18.904;-99.054;2022-12-05T06:16:23;19.80;90.40
61386;DHT22;47256;18.904;-99.054;2022-12-05T06:18:52;19.60;90.50
61386;DHT22;47256;18.904;-99.054;2022-12-05T06:21:20;19.60;90.40
61386;DHT22;47256;18.904;-99.054;2022-12-05T06:23:49;19.60;90.40
61386;DHT22;47256;18.904;-99.054;2022-12-05T06:26:41;19.60;90.50
61386;DHT22;47256;18.904;-99.054;2022-12-05T06:29:10;19.60;90.40
61386;DHT22;47256;18.904;-99.054;2022-12-05T06:31:40;19.50;91.00
61386;DHT22;47256;18.904;-99.054;2022-12-05T06:34:08;19.40;90.70
61386;DHT22;47256;18.904;-99.054;2022-12-05T06:36:36;19.40;91.00
61386;DHT22;47256;18.904;-99.054;2022-12-05T06:39:03;19.40;91.10
61386;DHT22;47256;18.904;-99.054;2022-12-05T06:41:31;19.40;91.00
61386;DHT22;47256;18.904;-99.054;2022-12-05T06:44:00;19.50;91.10
61386;DHT22;47256;18.904;-99.054;2022-12-05T06:46:28;19.50;91.10
61386;DHT22;47256;18.904;-99.054;2022-12-05T06:48:57;19.40;91.10
61386;DHT22;47256;18.904;-99.054;2022-12-05T06:51:24;19.40;90.90
61386;DHT22;47256;18.904;-99.054;2022-12-05T06:53:51;19.30;91.00
61386;DHT22;47256;18.904;-99.054;2022-12-05T06:56:22;19.30;90.80
61386;DHT22;47256;18.904;-99.054;2022-12-05T06:58:49;19.30;90.90
61386;DHT22;47256;18.904;-99.054;2022-12-05T07:01:19;19.40;90.70
61386;DHT22;47256;18.904;-99.054;2022-12-05T07:04:19;19.30;90.80
61386;DHT22;47256;18.904;-99.054;2022-12-05T07:06:47;19.30;91.00
61386;DHT22;47256;18.904;-99.054;2022-12-05T07:09:15;19.40;91.00
61386;DHT22;47256;18.904;-99.054;2022-12-05T07:11:49;19.40;91.00
61386;DHT22;47256;18.904;-99.054;2022-12-05T07:14:17;19.30;91.10
61386;DHT22;47256;18.904;-99.054;2022-12-05T07:16:44;19.30;91.20
61386;DHT22;47256;18.904;-99.054;2022-12-05T07:19:11;19.30;91.20
61386;DHT22;47256;18.904;-99.054;2022-12-05T07:21:38;19.30;91.30
61386;DHT22;47256;18.904;-99.054;2022-12-05T07:24:06;19.40;91.20
61386;DHT22;47256;18.904;-99.054;2022-12-05T07:26:35;19.20;91.20
61386;DHT22;47256;18.904;-99.054;2022-12-05T07:29:04;19.20;91.40
61386;DHT22;47256;18.904;-99.054;2022-12-05T07:31:32;19.20;91.40
61386;DHT22;47256;18.904;-99.054;2022-12-05T07:34:01;19.20;91.40
61386;DHT22;47256;18.904;-99.054;2022-12-05T07:36:29;19.20;91.30
61386;DHT22;47256;18.904;-99.054;2022-12-05T07:38:57;19.10;91.50
61386;DHT22;47256;18.904;-99.054;2022-12-05T07:41:29;19.10;91.40
61386;DHT22;47256;18.904;-99.054;2022-12-05T07:43:58;19.00;91.40
61386;DHT22;47256;18.904;-99.054;2022-12-05T07:46:27;19.00;91.40
61386;DHT22;47256;18.904;-99.054;2022-12-05T07:48:55;19.00;91.60
61386;DHT22;47256;18.904;-99.054;2022-12-05T07:51:22;19.00;91.50
61386;DHT22;47256;18.904;-99.054;2022-12-05T07:53:49;18.90;91.30
61386;DHT22;47256;18.904;-99.054;2022-12-05T07:56:17;18.90;91.40
61386;DHT22;47256;18.904;-99.054;2022-12-05T07:58:46;18.90;91.60
61386;DHT22;47256;18.904;-99.054;2022-12-05T08:01:16;18.90;91.60
61386;DHT22;47256;18.904;-99.054;2022-12-05T08:03:44;18.80;91.40
61386;DHT22;47256;18.904;-99.054;2022-12-05T08:06:14;18.80;91.50
61386;DHT22;47256;18.904;-99.054;2022-12-05T08:08:43;18.70;91.40
61386;DHT22;47256;18.904;-99.054;2022-12-05T08:11:16;18.70;91.70
61386;DHT22;47256;18.904;-99.054;2022-12-05T08:13:46;18.70;91.90
61386;DHT22;47256;18.904;-99.054;2022-12-05T08:16:15;18.60;91.20
61386;DHT22;47256;18.904;-99.054;2022-12-05T08:18:44;18.50;91.50
61386;DHT22;47256;18.904;-99.054;2022-12-05T08:21:16;18.50;91.60
61386;DHT22;47256;18.904;-99.054;2022-12-05T08:23:46;18.40;92.00
61386;DHT22;47256;18.904;-99.054;2022-12-05T08:26:21;18.30;92.00
61386;DHT22;47256;18.904;-99.054;2022-12-05T08:28:56;18.30;92.20
61386;DHT22;47256;18.904;-99.054;2022-12-05T08:31:33;18.20;92.20
61386;DHT22;47256;18.904;-99.054;2022-12-05T08:34:01;18.20;92.00
61386;DHT22;47256;18.904;-99.054;2022-12-05T08:36:29;18.20;92.00
61386;DHT22;47256;18.904;-99.054;2022-12-05T08:39:02;18.20;92.00
61386;DHT22;47256;18.904;-99.054;2022-12-05T08:41:32;18.20;92.00
61386;DHT22;47256;18.904;-99.054;2022-12-05T08:44:03;18.30;91.90
61386;DHT22;47256;18.904;-99.054;2022-12-05T08:46:33;18.20;91.70
61386;DHT22;47256;18.904;-99.054;2022-12-05T08:49:01;18.10;92.00
61386;DHT22;47256;18.904;-99.054;2022-12-05T08:51:29;18.10;91.90
61386;DHT22;47256;18.904;-99.054;2022-12-05T08:53:58;18.10;91.60
61386;DHT22;47256;18.904;-99.054;2022-12-05T08:56:25;18.00;91.70
61386;DHT22;47256;18.904;-99.054;2022-12-05T08:58:52;17.90;91.80
61386;DHT22;47256;18.904;-99.054;2022-12-05T09:01:20;18.00;92.00
61386;DHT22;47256;18.904;-99.054;2022-12-05T09:04:12;18.00;92.00
61386;DHT22;47256;18.904;-99.054;2022-12-05T09:06:41;18.00;91.80
61386;DHT22;47256;18.904;-99.054;2022-12-05T09:09:09;17.90;92.00
61386;DHT22;47256;18.904;-99.054;2022-12-05T09:11:41;17.80;91.30
61386;DHT22;47256;18.904;-99.054;2022-12-05T09:14:12;17.70;91.80
61386;DHT22;47256;18.904;-99.054;2022-12-05T09:16:40;17.70;91.80
61386;DHT22;47256;18.904;-99.054;2022-12-05T09:19:15;17.70;91.80
61386;DHT22;47256;18.904;-99.054;2022-12-05T09:21:50;17.70;91.80
61386;DHT22;47256;18.904;-99.054;2022-12-05T09:24:17;17.70;91.50
61386;DHT22;47256;18.904;-99.054;2022-12-05T09:26:45;17.50;91.70
61386;DHT22;47256;18.904;-99.054;2022-12-05T09:29:17;17.60;92.00
61386;DHT22;47256;18.904;-99.054;2022-12-05T09:31:46;17.70;91.70
61386;DHT22;47256;18.904;-99.054;2022-12-05T09:34:14;17.80;91.60
61386;DHT22;47256;18.904;-99.054;2022-12-05T09:36:43;17.90;91.60
61386;DHT22;47256;18.904;-99.054;2022-12-05T09:39:12;17.90;91.60
61386;DHT22;47256;18.904;-99.054;2022-12-05T09:50:16;17.70;91.70
61386;DHT22;47256;18.904;-99.054;2022-12-05T09:55:22;17.70;91.80
61386;DHT22;47256;18.904;-99.054;2022-12-05T09:58:00;17.80;91.70
61386;DHT22;47256;18.904;-99.054;2022-12-05T10:00:29;17.80;91.60
61386;DHT22;47256;18.904;-99.054;2022-12-05T10:08:57;17.50;91.50
61386;DHT22;47256;18.904;-99.054;2022-12-05T10:11:30;17.50;91.60
61386;DHT22;47256;18.904;-99.054;2022-12-05T10:16:37;17.50;91.70
61386;DHT22;47256;18.904;-99.054;2022-12-05T10:19:23;17.50;91.70
61386;DHT22;47256;18.904;-99.054;2022-12-05T10:22:06;17.50;91.70
61386;DHT22;47256;18.904;-99.054;2022-12-05T10:24:42;17.40;92.00
61386;DHT22;47256;18.904;-99.054;2022-12-05T10:27:20;17.40;92.00
61386;DHT22;47256;18.904;-99.054;2022-12-05T10:30:12;17.40;92.00
61386;DHT22;47256;18.904;-99.054;2022-12-05T10:32:54;17.40;92.30
61386;DHT22;47256;18.904;-99.054;2022-12-05T10:35:25;17.50;91.90
61386;DHT22;47256;18.904;-99.054;2022-12-05T10:37:58;17.40;92.00
61386;DHT22;47256;18.904;-99.054;2022-12-05T10:40:33;17.40;92.00
61386;DHT22;47256;18.904;-99.054;2022-12-05T10:43:04;17.50;92.00
61386;DHT22;47256;18.904;-99.054;2022-12-05T10:45:39;17.40;92.10
61386;DHT22;47256;18.904;-99.054;2022-12-05T10:48:12;17.40;92.10
61386;DHT22;47256;18.904;-99.054;2022-12-05T10:50:42;17.40;92.00
61386;DHT22;47256;18.904;-99.054;2022-12-05T10:53:16;17.40;92.20
61386;DHT22;47256;18.904;-99.054;2022-12-05T10:55:47;17.40;92.10
61386;DHT22;47256;18.904;-99.054;2022-12-05T10:58:35;17.40;92.10
61386;DHT22;47256;18.904;-99.054;2022-12-05T11:01:08;17.40;92.10
61386;DHT22;47256;18.904;-99.054;2022-12-05T11:03:40;17.40;92.10
61386;DHT22;47256;18.904;-99.054;2022-12-05T11:06:24;17.30;92.10
61386;DHT22;47256;18.904;-99.054;2022-12-05T11:08:57;17.30;92.30
61386;DHT22;47256;18.904;-99.054;2022-12-05T11:11:28;17.30;92.30
61386;DHT22;47256;18.904;-99.054;2022-12-05T11:14:04;17.20;92.40
61386;DHT22;47256;18.904;-99.054;2022-12-05T11:16:35;17.20;92.20
61386;DHT22;47256;18.904;-99.054;2022-12-05T11:19:24;17.00;92.60
61386;DHT22;47256;18.904;-99.054;2022-12-05T11:21:53;16.90;92.80
61386;DHT22;47256;18.904;-99.054;2022-12-05T11:24:27;17.00;92.70
61386;DHT22;47256;18.904;-99.054;2022-12-05T11:26:56;17.00;92.50
61386;DHT22;47256;18.904;-99.054;2022-12-05T11:29:36;17.00;92.70
61386;DHT22;47256;18.904;-99.054;2022-12-05T11:32:21;17.00;92.90
61386;DHT22;47256;18.904;-99.054;2022-12-05T11:35:37;17.00;92.80
61386;DHT22;47256;18.904;-99.054;2022-12-05T11:38:02;16.90;92.70
61386;DHT22;47256;18.904;-99.054;2022-12-05T11:40:35;16.80;92.90
61386;DHT22;47256;18.904;-99.054;2022-12-05T11:48:59;16.90;93.00
61386;DHT22;47256;18.904;-99.054;2022-12-05T11:51:43;16.90;92.60
61386;DHT22;47256;18.904;-99.054;2022-12-05T12:02:40;16.50;92.90
61386;DHT22;47256;18.904;-99.054;2022-12-05T12:05:37;16.50;92.60
61386;DHT22;47256;18.904;-99.054;2022-12-05T12:14:01;16.40;93.00
61386;DHT22;47256;18.904;-99.054;2022-12-05T12:36:51;16.40;92.90
61386;DHT22;47256;18.904;-99.054;2022-12-05T12:43:18;16.40;92.90
61386;DHT22;47256;18.904;-99.054;2022-12-05T12:51:17;16.40;93.00
61386;DHT22;47256;18.904;-99.054;2022-12-05T12:56:41;16.50;93.00
61386;DHT22;47256;18.904;-99.054;2022-12-05T13:05:25;16.50;92.80
61386;DHT22;47256;18.904;-99.054;2022-12-05T13:07:49;16.50;92.90
61386;DHT22;47256;18.904;-99.054;2022-12-05T13:10:40;16.60;92.70
61386;DHT22;47256;18.904;-99.054;2022-12-05T13:13:17;16.50;93.00
61386;DHT22;47256;18.904;-99.054;2022-12-05T13:15:51;16.50;92.90
61386;DHT22;47256;18.904;-99.054;2022-12-05T13:18:23;16.50;92.90
61386;DHT22;47256;18.904;-99.054;2022-12-05T13:20:56;16.50;93.00
61386;DHT22;47256;18.904;-99.054;2022-12-05T13:23:30;16.50;92.90
61386;DHT22;47256;18.904;-99.054;2022-12-05T13:26:07;16.50;93.00
61386;DHT22;47256;18.904;-99.054;2022-12-05T13:28:53;16.60;93.10
61386;DHT22;47256;18.904;-99.054;2022-12-05T13:31:42;16.60;93.10
61386;DHT22;47256;18.904;-99.054;2022-12-05T13:37:10;16.70;93.00
61386;DHT22;47256;18.904;-99.054;2022-12-05T13:39:57;16.80;93.00
61386;DHT22;47256;18.904;-99.054;2022-12-05T13:42:44;16.90;92.80
61386;DHT22;47256;18.904;-99.054;2022-12-05T13:45:17;17.00;92.80
61386;DHT22;47256;18.904;-99.054;2022-12-05T13:50:28;17.30;92.90
61386;DHT22;47256;18.904;-99.054;2022-12-05T13:55:59;17.30;93.40
61386;DHT22;47256;18.904;-99.054;2022-12-05T14:03:56;17.60;92.70
61386;DHT22;47256;18.904;-99.054;2022-12-05T14:17:30;18.30;93.40
61386;DHT22;47256;18.904;-99.054;2022-12-05T14:29:36;18.90;93.50
61386;DHT22;47256;18.904;-99.054;2022-12-05T14:32:36;19.00;92.70
61386;DHT22;47256;18.904;-99.054;2022-12-05T14:35:30;19.20;93.60
61386;DHT22;47256;18.904;-99.054;2022-12-05T14:38:04;19.40;93.50
61386;DHT22;47256;18.904;-99.054;2022-12-05T14:40:36;19.50;92.50
61386;DHT22;47256;18.904;-99.054;2022-12-05T14:50:56;20.10;91.00
61386;DHT22;47256;18.904;-99.054;2022-12-05T14:53:33;20.20;90.70
61386;DHT22;47256;18.904;-99.054;2022-12-05T14:56:17;20.30;90.80
61386;DHT22;47256;18.904;-99.054;2022-12-05T14:59:05;20.50;91.30
61386;DHT22;47256;18.904;-99.054;2022-12-05T15:01:48;20.70;90.60
61386;DHT22;47256;18.904;-99.054;2022-12-05T15:07:11;21.00;90.30
61386;DHT22;47256;18.904;-99.054;2022-12-05T15:10:05;21.10;88.90
61386;DHT22;47256;18.904;-99.054;2022-12-05T15:12:44;21.30;88.40
61386;DHT22;47256;18.904;-99.054;2022-12-05T15:15:51;21.30;86.10
61386;DHT22;47256;18.904;-99.054;2022-12-05T15:18:46;21.50;86.60
61386;DHT22;47256;18.904;-99.054;2022-12-05T15:21:21;21.70;87.50
61386;DHT22;47256;18.904;-99.054;2022-12-05T15:23:58;21.80;86.30
61386;DHT22;47256;18.904;-99.054;2022-12-05T15:26:34;22.00;86.70
61386;DHT22;47256;18.904;-99.054;2022-12-05T15:29:05;22.10;86.80
61386;DHT22;47256;18.904;-99.054;2022-12-05T15:31:46;22.30;84.70
61386;DHT22;47256;18.904;-99.054;2022-12-05T15:34:22;22.40;85.10
61386;DHT22;47256;18.904;-99.054;2022-12-05T15:40:01;22.70;84.10
61386;DHT22;47256;18.904;-99.054;2022-12-05T15:42:42;22.80;84.40
61386;DHT22;47256;18.904;-99.054;2022-12-05T15:47:42;23.20;84.30
61386;DHT22;47256;18.904;-99.054;2022-12-05T15:50:32;23.30;83.00
61386;DHT22;47256;18.904;-99.054;2022-12-05T15:53:15;23.30;82.60
61386;DHT22;47256;18.904;-99.054;2022-12-05T15:58:43;23.40;80.70
61386;DHT22;47256;18.904;-99.054;2022-12-05T16:01:16;23.60;82.10
61386;DHT22;47256;18.904;-99.054;2022-12-05T16:04:14;23.80;81.30
61386;DHT22;47256;18.904;-99.054;2022-12-05T16:06:47;23.80;78.60
61386;DHT22;47256;18.904;-99.054;2022-12-05T16:09:25;23.80;80.00
61386;DHT22;47256;18.904;-99.054;2022-12-05T16:11:58;23.80;78.30
61386;DHT22;47256;18.904;-99.054;2022-12-05T16:14:33;23.90;79.80
61386;DHT22;47256;18.904;-99.054;2022-12-05T16:17:02;24.10;80.20
61386;DHT22;47256;18.904;-99.054;2022-12-05T16:19:31;24.20;79.40
61386;DHT22;47256;18.904;-99.054;2022-12-05T16:24:47;24.60;77.30
61386;DHT22;47256;18.904;-99.054;2022-12-05T16:27:34;24.70;77.90
61386;DHT22;47256;18.904;-99.054;2022-12-05T16:30:20;24.90;75.30
61386;DHT22;47256;18.904;-99.054;2022-12-05T16:32:49;24.80;75.20
61386;DHT22;47256;18.904;-99.054;2022-12-05T16:35:31;24.70;76.00
61386;DHT22;47256;18.904;-99.054;2022-12-05T16:44:02;25.00;76.10
61386;DHT22;47256;18.904;-99.054;2022-12-05T16:48:45;25.30;76.60
61386;DHT22;47256;18.904;-99.054;2022-12-05T16:51:19;25.50;76.10
61386;DHT22;47256;18.904;-99.054;2022-12-05T16:53:51;25.70;77.00
61386;DHT22;47256;18.904;-99.054;2022-12-05T16:56:28;25.80;75.80
61386;DHT22;47256;18.904;-99.054;2022-12-05T16:58:56;25.80;73.80
61386;DHT22;47256;18.904;-99.054;2022-12-05T17:01:25;25.70;72.70
61386;DHT22;47256;18.904;-99.054;2022-12-05T17:03:54;25.70;76.00
61386;DHT22;47256;18.904;-99.054;2022-12-05T17:06:27;25.90;75.50
61386;DHT22;47256;18.904;-99.054;2022-12-05T17:08:57;26.00;74.20
61386;DHT22;47256;18.904;-99.054;2022-12-05T17:11:27;26.10;71.60
61386;DHT22;47256;18.904;-99.054;2022-12-05T17:14:01;26.20;73.50
61386;DHT22;47256;18.904;-99.054;2022-12-05T17:16:30;26.40;73.50
61386;DHT22;47256;18.904;-99.054;2022-12-05T17:18:59;26.40;74.50
61386;DHT22;47256;18.904;-99.054;2022-12-05T17:21:30;26.60;75.20
61386;DHT22;47256;18.904;-99.054;2022-12-05T17:24:01;26.60;73.90
61386;DHT22;47256;18.904;-99.054;2022-12-05T17:26:29;26.80;75.80
61386;DHT22;47256;18.904;-99.054;2022-12-05T17:28:56;26.80;73.60
61386;DHT22;47256;18.904;-99.054;2022-12-05T17:31:25;26.90;73.30
61386;DHT22;47256;18.904;-99.054;2022-12-05T17:33:53;26.90;74.40
61386;DHT22;47256;18.904;-99.054;2022-12-05T17:36:20;27.00;72.00
61386;DHT22;47256;18.904;-99.054;2022-12-05T17:38:48;27.20;74.20
61386;DHT22;47256;18.904;-99.054;2022-12-05T17:41:17;27.40;74.60
61386;DHT22;47256;18.904;-99.054;2022-12-05T17:43:46;27.50;71.70
61386;DHT22;47256;18.904;-99.054;2022-12-05T17:46:21;27.60;73.10
61386;DHT22;47256;18.904;-99.054;2022-12-05T17:48:52;27.70;72.50
61386;DHT22;47256;18.904;-99.054;2022-12-05T17:51:19;27.50;69.80
61386;DHT22;47256;18.904;-99.054;2022-12-05T17:53:48;27.50;71.30
61386;DHT22;47256;18.904;-99.054;2022-12-05T17:56:18;27.60;67.60
61386;DHT22;47256;18.904;-99.054;2022-12-05T17:58:45;27.60;68.30
61386;DHT22;47256;18.904;-99.054;2022-12-05T18:01:15;27.60;69.60
61386;DHT22;47256;18.904;-99.054;2022-12-05T18:03:43;27.80;69.70
61386;DHT22;47256;18.904;-99.054;2022-12-05T18:06:16;27.90;69.80
61386;DHT22;47256;18.904;-99.054;2022-12-05T18:08:47;27.90;66.50
61386;DHT22;47256;18.904;-99.054;2022-12-05T18:11:15;27.80;68.70
61386;DHT22;47256;18.904;-99.054;2022-12-05T18:13:42;27.80;66.60
61386;DHT22;47256;18.904;-99.054;2022-12-05T18:16:09;27.90;70.30
61386;DHT22;47256;18.904;-99.054;2022-12-05T18:18:38;27.90;69.40
61386;DHT22;47256;18.904;-99.054;2022-12-05T18:21:10;28.00;70.40
61386;DHT22;47256;18.904;-99.054;2022-12-05T18:23:39;28.20;70.20
61386;DHT22;47256;18.904;-99.054;2022-12-05T18:26:08;28.20;70.10
61386;DHT22;47256;18.904;-99.054;2022-12-05T18:28:37;28.30;69.70
61386;DHT22;47256;18.904;-99.054;2022-12-05T18:31:10;28.30;67.00
61386;DHT22;47256;18.904;-99.054;2022-12-05T18:33:39;28.40;68.50
61386;DHT22;47256;18.904;-99.054;2022-12-05T18:36:12;28.50;65.90
61386;DHT22;47256;18.904;-99.054;2022-12-05T18:38:42;28.60;68.00
61386;DHT22;47256;18.904;-99.054;2022-12-05T18:41:15;28.60;66.60
61386;DHT22;47256;18.904;-99.054;2022-12-05T18:43:43;28.50;64.90
61386;DHT22;47256;18.904;-99.054;2022-12-05T18:46:13;28.30;62.80
61386;DHT22;47256;18.904;-99.054;2022-12-05T18:48:40;28.30;66.50
61386;DHT22;47256;18.904;-99.054;2022-12-05T18:51:16;28.30;64.10
61386;DHT22;47256;18.904;-99.054;2022-12-05T18:53:47;28.20;62.70
61386;DHT22;47256;18.904;-99.054;2022-12-05T18:56:23;28.20;67.60
61386;DHT22;47256;18.904;-99.054;2022-12-05T18:58:54;28.20;63.40
61386;DHT22;47256;18.904;-99.054;2022-12-05T19:01:24;28.20;65.30
61386;DHT22;47256;18.904;-99.054;2022-12-05T19:03:52;28.30;67.80
61386;DHT22;47256;18.904;-99.054;2022-12-05T19:06:22;28.30;65.60
61386;DHT22;47256;18.904;-99.054;2022-12-05T19:08:55;28.30;67.00
61386;DHT22;47256;18.904;-99.054;2022-12-05T19:11:23;28.30;66.40
61386;DHT22;47256;18.904;-99.054;2022-12-05T19:13:59;28.20;64.30
61386;DHT22;47256;18.904;-99.054;2022-12-05T19:16:28;28.10;61.00
61386;DHT22;47256;18.904;-99.054;2022-12-05T19:18:58;28.00;64.00
61386;DHT22;47256;18.904;-99.054;2022-12-05T19:21:28;28.00;62.50
61386;DHT22;47256;18.904;-99.054;2022-12-05T19:23:57;28.00;65.40
61386;DHT22;47256;18.904;-99.054;2022-12-05T19:26:25;27.90;64.30
61386;DHT22;47256;18.904;-99.054;2022-12-05T19:28:53;28.00;64.50
61386;DHT22;47256;18.904;-99.054;2022-12-05T19:31:22;27.90;62.30